Flight Track Log - Related Links

Times and Time Zones

All times are in EDT time to prevent confusion due to time zone crossing. See the VIN843 flight status page for this flight to view local times or setup timezone preferences in your user account.

Time Position Orientation Groundspeed Altitude Reporting Facility
EDT Latitude Longitude Course Direction KTS MPH feet Rate Location/Type
Thu 02:24:06 AM -12.4010 130.8439 324° Northwest 139 160 1,200  Level Aus ATC (RADAR)
Thu 02:25:10 AM -12.3638 130.8161 324° Northwest 151 174 2,700 1,385 Climbing Aus ATC (RADAR)
Thu 02:25:50 AM -12.3406 130.7972 321° Northwest 158 182 3,600 1,200 Climbing Aus ATC (RADAR)
Thu 02:26:30 AM -12.3203 130.8125 36° Northeast 144 166 4,300 1,067 Climbing Aus ATC (RADAR)
Thu 02:27:20 AM -12.3176 130.8513 86° East 159 183 5,200 1,086 Climbing Aus ATC (RADAR)
Thu 02:28:15 AM -12.3124 130.8938 83° East 164 189 6,200 1,080 Climbing Aus ATC (RADAR)
Thu 02:29:00 AM -12.3259 130.9280 112° Southeast 167 192 7,000 1,125 Climbing Aus ATC (RADAR)
Thu 02:29:35 AM -12.3350 130.9547 109° East 165 190 7,700 1,067 Climbing Aus ATC (RADAR)
Thu 02:30:30 AM -12.3505 130.9973 110° East 169 194 8,600 1,029 Climbing Aus ATC (RADAR)
Thu 02:31:20 AM -12.3643 131.0371 110° East 173 199 9,500 1,008 Climbing Aus ATC (RADAR)
Thu 02:32:35 AM -12.3828 131.0987 107° East 176 203 10,700 969 Climbing Aus ATC (RADAR)
Thu 02:33:30 AM -12.3973 131.1427 109° East 173 199 11,600 900 Climbing Aus ATC (RADAR)
Thu 02:34:15 AM -12.4100 131.1789 110° East 176 203 12,200 835 Climbing Aus ATC (RADAR)
Thu 02:34:49 AM -12.4192 131.2073 108° East 175 201 12,700 786 Climbing Aus ATC (RADAR)
Thu 02:35:39 AM -12.4341 131.2479 111° Southeast 178 205 13,300 750 Climbing Aus ATC (RADAR)
Thu 02:36:09 AM -12.4434 131.2721 112° Southeast 178 205 13,700 738 Climbing Aus ATC (RADAR)
Thu 02:36:44 AM -12.4540 131.3002 111° Southeast 178 205 14,100 706 Climbing Aus ATC (RADAR)
Thu 02:37:34 AM -12.4694 131.3403 112° Southeast 186 214 14,700 655 Climbing Aus ATC (RADAR)
Thu 02:38:34 AM -12.4877 131.3889 111° Southeast 182 209 15,300 660 Climbing Aus ATC (RADAR)
Thu 02:39:14 AM -12.4999 131.4211 111° Southeast 179 206 15,800 640 Climbing Aus ATC (RADAR)
Thu 02:39:49 AM -12.5111 131.4499 112° Southeast 183 211 16,100 600 Climbing Aus ATC (RADAR)
Thu 02:40:34 AM -12.5248 131.4868 111° Southeast 182 209 16,600 545 Climbing Aus ATC (RADAR)
Thu 02:41:39 AM -12.5447 131.5418 110° East 189 217 17,100 500 Climbing Aus ATC (RADAR)
Thu 02:42:34 AM -12.5642 131.5895 113° Southeast 196 226 17,600 494 Climbing Aus ATC (RADAR)
Thu 02:43:04 AM -12.5739 131.6156 111° Southeast 194 223 17,800 462 Climbing Aus ATC (RADAR)
Thu 02:43:39 AM -12.5856 131.6459 112° Southeast 192 221 18,100 429 Climbing Aus ATC (RADAR)
Thu 02:44:14 AM -12.5967 131.6770 110° East 196 226 18,300 480 Climbing Aus ATC (RADAR)
Thu 02:44:54 AM -12.6105 131.7123 112° Southeast 197 227 18,700 429 Climbing Aus ATC (RADAR)
Thu 02:45:38 AM -12.6249 131.7528 110° East 198 228 18,900 162 Climbing Aus ATC (RADAR)
Thu 02:46:08 AM -12.6359 131.7805 112° Southeast 205 236 18,900  Level Aus ATC (RADAR)
Thu 02:46:43 AM -12.6496 131.8153 112° Southeast 220 253 18,900  Level Aus ATC (RADAR)
Thu 02:47:53 AM -12.6770 131.8887 111° Southeast 236 272 18,900  Level Aus ATC (RADAR)
Thu 02:48:53 AM -12.7017 131.9542 111° Southeast 245 282 18,900  Level Aus ATC (RADAR)
Thu 02:49:28 AM -12.7177 131.9933 113° Southeast 250 288 18,900  Level Aus ATC (RADAR)
Thu 02:50:13 AM -12.7368 132.0439 111° Southeast 250 288 18,900  Level Aus ATC (RADAR)
Thu 02:50:43 AM -12.7491 132.0781 110° East 252 290 18,900  Level Aus ATC (RADAR)
Thu 02:51:18 AM -12.7642 132.1179 111° Southeast 252 290 18,900  Level Aus ATC (RADAR)
Thu 02:52:03 AM -12.7838 132.1692 111° Southeast 253 291 18,900  Level Aus ATC (RADAR)
Thu 02:52:53 AM -12.8054 132.2262 111° Southeast 254 292 18,900  Level Aus ATC (RADAR)
Thu 02:53:43 AM -12.8210 132.2854 105° East 255 293 18,900  Level Aus ATC (RADAR)
Thu 02:54:18 AM -12.8323 132.3266 106° East 253 291 18,900  Level Aus ATC (RADAR)
Thu 02:55:03 AM -12.8472 132.3791 106° East 253 291 18,900  Level Aus ATC (RADAR)
Thu 02:56:07 AM -12.8694 132.4547 107° East 252 290 18,900  Level Aus ATC (RADAR)
Thu 02:57:07 AM -12.8893 132.5244 106° East 251 289 18,900  Level Aus ATC (RADAR)
Thu 02:57:52 AM -12.9040 132.5767 106° East 252 290 18,900  Level Aus ATC (RADAR)
Thu 02:58:27 AM -12.9162 132.6172 107° East 251 289 18,900  Level Aus ATC (RADAR)
Thu 02:59:07 AM -12.9292 132.6639 106° East 253 291 18,900  Level Aus ATC (RADAR)
Thu 02:59:52 AM -12.9440 132.7161 106° East 251 289 18,900  Level Aus ATC (RADAR)
Thu 03:00:52 AM -12.9637 132.7858 106° East 251 289 18,900  Level Aus ATC (RADAR)
Thu 03:01:47 AM -12.9815 132.8496 106° East 251 289 18,900  Level Aus ATC (RADAR)
Thu 03:02:27 AM -12.9954 132.8959 107° East 251 289 18,900  Level Aus ATC (RADAR)
Thu 03:03:17 AM -13.0115 132.9541 106° East 251 289 18,900  Level Aus ATC (RADAR)
Thu 03:04:22 AM -13.0328 133.0297 106° East 252 290 18,900  Level Aus ATC (RADAR)
Thu 03:04:57 AM -13.0445 133.0707 106° East 254 292 18,900  Level Aus ATC (RADAR)
Thu 03:05:32 AM -13.0562 133.1117 106° East 254 292 18,900  Level Aus ATC (RADAR)
Thu 03:06:26 AM -13.0744 133.1762 106° East 254 292 18,900  Level Aus ATC (RADAR)
Thu 03:07:16 AM -13.0912 133.2350 106° East 253 291 18,900  Level Aus ATC (RADAR)
Thu 03:08:21 AM -13.1124 133.3116 106° East 254 292 18,900  Level Aus ATC (RADAR)
Thu 03:09:16 AM -13.1306 133.3765 106° East 255 293 18,900  Level Aus ATC (RADAR)
Thu 03:09:51 AM -13.1426 133.4174 107° East 254 292 18,900  Level Aus ATC (RADAR)
Thu 03:10:26 AM -13.1543 133.4585 106° East 254 292 18,900  Level Aus ATC (RADAR)
Thu 03:11:16 AM -13.1707 133.5172 106° East 253 291 18,900  Level Aus ATC (RADAR)
Thu 03:12:11 AM -13.1887 133.5816 106° East 252 290 18,900  Level Aus ATC (RADAR)
Thu 03:13:06 AM -13.2064 133.6464 106° East 254 292 18,900  Level Aus ATC (RADAR)
Thu 03:14:16 AM -13.2291 133.7282 106° East 253 291 18,900  Level Aus ATC (RADAR)
Thu 03:14:46 AM -13.2388 133.7632 106° East 253 291 18,900  Level Aus ATC (RADAR)
Thu 03:15:21 AM -13.2503 133.8040 106° East 252 290 18,900  Level Aus ATC (RADAR)
Thu 03:16:11 AM -13.2668 133.8623 106° East 252 290 18,900  Level Aus ATC (RADAR)
Thu 03:16:50 AM -13.2856 133.9143 110° East 281 323 18,900  Level Aus ATC (RADAR)
Thu 03:17:45 AM -13.3047 133.9795 107° East 265 305 18,900  Level Aus ATC (RADAR)
Thu 03:18:20 AM -13.3152 134.0192 105° East 253 291 18,900  Level Aus ATC (RADAR)
Thu 03:19:25 AM -13.3357 134.0942 106° East 250 288 18,900  Level Aus ATC (RADAR)
Thu 03:20:05 AM -13.3487 134.1405 106° East 251 289 18,900  Level Aus ATC (RADAR)
Thu 03:20:50 AM -13.3628 134.1926 105° East 251 289 18,900  Level Aus ATC (RADAR)
Thu 03:21:20 AM -13.3731 134.2273 107° East 251 289 18,900  Level Aus ATC (RADAR)
Thu 03:21:55 AM -13.3848 134.2681 106° East 251 289 18,900  Level Aus ATC (RADAR)
Thu 03:22:30 AM -13.3960 134.3088 106° East 252 290 18,900  Level Aus ATC (RADAR)
Thu 03:23:20 AM -13.4123 134.3665 106° East 250 288 18,900  Level Aus ATC (RADAR)
Thu 03:24:15 AM -13.4300 134.4301 106° East 251 289 18,900  Level Aus ATC (RADAR)
Thu 03:24:50 AM -13.4413 134.4705 106° East 251 289 18,900  Level Aus ATC (RADAR)
Thu 03:25:40 AM -13.4580 134.5287 106° East 253 291 18,900  Level Aus ATC (RADAR)
Thu 03:26:30 AM -13.4734 134.5865 105° East 252 290 18,900  Level Aus ATC (RADAR)
Thu 03:27:24 AM -13.4914 134.6509 106° East 254 292 18,900  Level Aus ATC (RADAR)
Thu 03:27:59 AM -13.5031 134.6909 107° East 251 289 18,900  Level Aus ATC (RADAR)
Thu 03:28:44 AM -13.5174 134.7436 106° East 253 291 18,900  Level Aus ATC (RADAR)
Thu 03:29:44 AM -13.5365 134.8130 106° East 251 289 18,900  Level Aus ATC (RADAR)
Thu 03:30:19 AM -13.5478 134.8536 106° East 251 289 18,900  Level Aus ATC (RADAR)
Thu 03:30:59 AM -13.5606 134.9000 106° East 252 290 18,900  Level Aus ATC (RADAR)
Thu 03:31:29 AM -13.5702 134.9348 106° East 252 290 18,900  Level Aus ATC (RADAR)
Thu 03:32:29 AM -13.5896 135.0040 106° East 251 289 18,900  Level Aus ATC (RADAR)
Thu 03:36:34 AM -13.6789 135.3328 105° East 200 -4,580 Descending Aus ATC (Calculated)
Thu 03:38:00 AM -13.7028 135.4221 105° East  Level FlightAware Approximate
Thu 03:39:00 AM -13.7194 135.4845 105° East  Level FlightAware Approximate
Thu 03:40:00 AM -13.7359 135.5468 105° East  Level FlightAware Approximate
Thu 03:40:15 AM -13.7535 135.6131 360° North 200  Level Aus ATC (Calculated)
Thu 03:40:55 AM -13.7535 135.6131 105° East 200  Level Aus ATC (Calculated)
Thu 03:42:00 AM -13.7714 135.6807 105° East  Level FlightAware Approximate
Thu 03:43:00 AM -13.7880 135.7431 105° East  Level FlightAware Approximate
Thu 03:44:00 AM -13.8045 135.8055 105° East  Level FlightAware Approximate
Thu 03:45:00 AM -13.8210 135.8679 105° East  Level FlightAware Approximate
Thu 03:46:00 AM -13.8375 135.9303 105° East  Level FlightAware Approximate
Thu 03:47:00 AM -13.8540 135.9927 105° East  Level FlightAware Approximate
Thu 03:48:00 AM -13.8704 136.0551 105° East  Level FlightAware Approximate
Thu 03:49:00 AM -13.8869 136.1176 105° East  Level FlightAware Approximate
Thu 03:50:00 AM -13.9033 136.1800 105° East  Level FlightAware Approximate
Thu 03:51:00 AM -13.9197 136.2425 105° East  Level FlightAware Approximate
Thu 03:52:00 AM -13.9361 136.3050 105° East  Level FlightAware Approximate
Thu 03:52:00 AM -13.9754 136.4550 360° North  Level Aus ATC (Calculated)
Thu 03:52:00 AM -13.9754 136.4550 85° East  Level Aus ATC (Calculated)
Thu 03:53:00 AM -13.9750 136.4600 North  Level Estimated
Thu 03:54:00 AM -13.9750 136.4600 North  Level Estimated
Thu 03:55:00 AM -13.9750 136.4600 265° West  Level Estimated

Login

Don't have an account? Register now (free) for customized features, flight alerts, and more!